sensor_id;sensor_type;location;lat;lon;timestamp;P1;durP1;ratioP1;P2;durP2;ratioP2
7377;SDS011;3730;50.856;12.776;2022-09-24T00:02:02;4.70;;;3.63;;
7377;SDS011;3730;50.856;12.776;2022-09-24T00:04:29;4.77;;;2.93;;
7377;SDS011;3730;50.856;12.776;2022-09-24T00:06:55;4.03;;;3.00;;
7377;SDS011;3730;50.856;12.776;2022-09-24T00:09:21;6.20;;;4.07;;
7377;SDS011;3730;50.856;12.776;2022-09-24T00:11:48;5.07;;;4.57;;
7377;SDS011;3730;50.856;12.776;2022-09-24T00:14:15;5.37;;;4.17;;
7377;SDS011;3730;50.856;12.776;2022-09-24T00:16:42;6.77;;;3.63;;
7377;SDS011;3730;50.856;12.776;2022-09-24T00:19:08;3.00;;;2.80;;
7377;SDS011;3730;50.856;12.776;2022-09-24T00:21:35;2.77;;;2.57;;
7377;SDS011;3730;50.856;12.776;2022-09-24T00:24:03;3.40;;;2.70;;
7377;SDS011;3730;50.856;12.776;2022-09-24T00:26:29;2.90;;;2.70;;
7377;SDS011;3730;50.856;12.776;2022-09-24T00:29:17;2.67;;;2.47;;
7377;SDS011;3730;50.856;12.776;2022-09-24T00:31:44;3.50;;;3.20;;
7377;SDS011;3730;50.856;12.776;2022-09-24T00:34:10;2.90;;;2.70;;
7377;SDS011;3730;50.856;12.776;2022-09-24T00:36:36;3.30;;;2.70;;
7377;SDS011;3730;50.856;12.776;2022-09-24T00:39:02;2.80;;;2.60;;
7377;SDS011;3730;50.856;12.776;2022-09-24T00:41:30;3.30;;;2.90;;
7377;SDS011;3730;50.856;12.776;2022-09-24T00:43:56;3.50;;;3.20;;
7377;SDS011;3730;50.856;12.776;2022-09-24T00:48:49;4.23;;;3.17;;
7377;SDS011;3730;50.856;12.776;2022-09-24T00:51:17;3.40;;;2.93;;
7377;SDS011;3730;50.856;12.776;2022-09-24T00:53:44;2.97;;;2.50;;
7377;SDS011;3730;50.856;12.776;2022-09-24T00:56:11;3.00;;;2.80;;
7377;SDS011;3730;50.856;12.776;2022-09-24T00:58:39;2.70;;;2.50;;
7377;SDS011;3730;50.856;12.776;2022-09-24T01:01:06;2.60;;;2.40;;
7377;SDS011;3730;50.856;12.776;2022-09-24T01:03:33;3.27;;;2.80;;
7377;SDS011;3730;50.856;12.776;2022-09-24T01:06:06;2.93;;;2.70;;
7377;SDS011;3730;50.856;12.776;2022-09-24T01:08:33;2.30;;;2.20;;
7377;SDS011;3730;50.856;12.776;2022-09-24T01:16:24;2.70;;;2.50;;
7377;SDS011;3730;50.856;12.776;2022-09-24T01:18:57;2.50;;;2.30;;
7377;SDS011;3730;50.856;12.776;2022-09-24T01:21:29;4.13;;;3.00;;
7377;SDS011;3730;50.856;12.776;2022-09-24T01:31:43;2.47;;;2.27;;
7377;SDS011;3730;50.856;12.776;2022-09-24T01:34:11;2.80;;;2.60;;
7377;SDS011;3730;50.856;12.776;2022-09-24T01:36:39;2.63;;;2.43;;
7377;SDS011;3730;50.856;12.776;2022-09-24T01:39:07;2.47;;;2.27;;
7377;SDS011;3730;50.856;12.776;2022-09-24T01:41:34;2.73;;;2.47;;
7377;SDS011;3730;50.856;12.776;2022-09-24T01:44:01;2.50;;;2.30;;
7377;SDS011;3730;50.856;12.776;2022-09-24T01:46:30;2.83;;;2.63;;
7377;SDS011;3730;50.856;12.776;2022-09-24T01:48:57;3.13;;;2.83;;
7377;SDS011;3730;50.856;12.776;2022-09-24T01:51:24;3.50;;;2.07;;
7377;SDS011;3730;50.856;12.776;2022-09-24T01:53:53;3.07;;;2.73;;
7377;SDS011;3730;50.856;12.776;2022-09-24T01:56:41;3.27;;;2.63;;
7377;SDS011;3730;50.856;12.776;2022-09-24T01:59:11;3.30;;;2.57;;
7377;SDS011;3730;50.856;12.776;2022-09-24T02:01:50;4.67;;;2.40;;
7377;SDS011;3730;50.856;12.776;2022-09-24T02:04:18;2.30;;;2.20;;
7377;SDS011;3730;50.856;12.776;2022-09-24T02:11:56;2.43;;;2.33;;
7377;SDS011;3730;50.856;12.776;2022-09-24T02:14:23;3.07;;;2.70;;
7377;SDS011;3730;50.856;12.776;2022-09-24T02:16:50;2.67;;;2.40;;
7377;SDS011;3730;50.856;12.776;2022-09-24T02:19:17;2.40;;;2.27;;
7377;SDS011;3730;50.856;12.776;2022-09-24T02:21:45;2.43;;;2.23;;
7377;SDS011;3730;50.856;12.776;2022-09-24T02:26:37;2.67;;;2.40;;
7377;SDS011;3730;50.856;12.776;2022-09-24T02:29:03;2.83;;;2.57;;
7377;SDS011;3730;50.856;12.776;2022-09-24T02:31:30;3.63;;;2.67;;
7377;SDS011;3730;50.856;12.776;2022-09-24T02:33:57;2.60;;;2.40;;
7377;SDS011;3730;50.856;12.776;2022-09-24T02:36:43;4.00;;;2.50;;
7377;SDS011;3730;50.856;12.776;2022-09-24T02:39:09;2.50;;;2.30;;
7377;SDS011;3730;50.856;12.776;2022-09-24T02:41:35;2.63;;;2.43;;
7377;SDS011;3730;50.856;12.776;2022-09-24T02:44:01;2.47;;;2.30;;
7377;SDS011;3730;50.856;12.776;2022-09-24T02:46:27;2.60;;;2.40;;
7377;SDS011;3730;50.856;12.776;2022-09-24T02:48:53;2.63;;;2.43;;
7377;SDS011;3730;50.856;12.776;2022-09-24T02:51:19;2.60;;;2.40;;
7377;SDS011;3730;50.856;12.776;2022-09-24T02:53:46;3.37;;;2.30;;
7377;SDS011;3730;50.856;12.776;2022-09-24T02:56:12;2.57;;;2.20;;
7377;SDS011;3730;50.856;12.776;2022-09-24T02:58:38;3.43;;;2.27;;
7377;SDS011;3730;50.856;12.776;2022-09-24T03:01:04;3.37;;;2.27;;
7377;SDS011;3730;50.856;12.776;2022-09-24T03:03:31;3.43;;;2.23;;
7377;SDS011;3730;50.856;12.776;2022-09-24T03:05:58;2.80;;;2.60;;
7377;SDS011;3730;50.856;12.776;2022-09-24T03:08:24;2.53;;;2.33;;
7377;SDS011;3730;50.856;12.776;2022-09-24T03:10:51;2.60;;;2.40;;
7377;SDS011;3730;50.856;12.776;2022-09-24T03:13:20;3.00;;;2.80;;
7377;SDS011;3730;50.856;12.776;2022-09-24T03:15:46;2.60;;;2.40;;
7377;SDS011;3730;50.856;12.776;2022-09-24T03:18:12;2.50;;;2.30;;
7377;SDS011;3730;50.856;12.776;2022-09-24T03:20:38;2.70;;;2.50;;
7377;SDS011;3730;50.856;12.776;2022-09-24T03:23:04;2.67;;;2.40;;
7377;SDS011;3730;50.856;12.776;2022-09-24T03:25:31;2.40;;;2.20;;
7377;SDS011;3730;50.856;12.776;2022-09-24T03:27:57;2.80;;;2.40;;
7377;SDS011;3730;50.856;12.776;2022-09-24T03:30:23;3.03;;;2.40;;
7377;SDS011;3730;50.856;12.776;2022-09-24T03:33:08;2.70;;;2.50;;
7377;SDS011;3730;50.856;12.776;2022-09-24T03:35:34;2.97;;;2.70;;
7377;SDS011;3730;50.856;12.776;2022-09-24T03:38:00;2.90;;;2.70;;
7377;SDS011;3730;50.856;12.776;2022-09-24T03:40:26;3.13;;;2.70;;
7377;SDS011;3730;50.856;12.776;2022-09-24T03:42:52;2.97;;;2.77;;
7377;SDS011;3730;50.856;12.776;2022-09-24T03:45:18;3.20;;;2.90;;
7377;SDS011;3730;50.856;12.776;2022-09-24T03:47:44;3.40;;;3.13;;
7377;SDS011;3730;50.856;12.776;2022-09-24T03:50:10;3.00;;;2.80;;
7377;SDS011;3730;50.856;12.776;2022-09-24T03:52:37;3.43;;;3.13;;
7377;SDS011;3730;50.856;12.776;2022-09-24T03:55:03;3.03;;;2.83;;
7377;SDS011;3730;50.856;12.776;2022-09-24T03:57:29;2.73;;;2.53;;
7377;SDS011;3730;50.856;12.776;2022-09-24T03:59:55;2.77;;;2.57;;
7377;SDS011;3730;50.856;12.776;2022-09-24T04:02:22;2.70;;;2.50;;
7377;SDS011;3730;50.856;12.776;2022-09-24T04:04:48;3.00;;;2.80;;
7377;SDS011;3730;50.856;12.776;2022-09-24T04:07:14;4.40;;;2.73;;
7377;SDS011;3730;50.856;12.776;2022-09-24T04:09:41;3.00;;;2.80;;
7377;SDS011;3730;50.856;12.776;2022-09-24T04:12:07;3.07;;;2.80;;
7377;SDS011;3730;50.856;12.776;2022-09-24T04:14:33;2.70;;;2.23;;
7377;SDS011;3730;50.856;12.776;2022-09-24T04:16:59;3.30;;;3.00;;
7377;SDS011;3730;50.856;12.776;2022-09-24T04:19:25;4.57;;;2.80;;
7377;SDS011;3730;50.856;12.776;2022-09-24T04:21:51;3.10;;;2.43;;
7377;SDS011;3730;50.856;12.776;2022-09-24T04:24:17;3.07;;;2.13;;
7377;SDS011;3730;50.856;12.776;2022-09-24T04:26:43;3.10;;;2.80;;
7377;SDS011;3730;50.856;12.776;2022-09-24T04:29:09;2.77;;;2.57;;
7377;SDS011;3730;50.856;12.776;2022-09-24T04:31:37;3.00;;;2.70;;
7377;SDS011;3730;50.856;12.776;2022-09-24T04:34:04;2.83;;;2.60;;
7377;SDS011;3730;50.856;12.776;2022-09-24T04:36:30;3.13;;;2.53;;
7377;SDS011;3730;50.856;12.776;2022-09-24T04:38:56;3.40;;;2.53;;
7377;SDS011;3730;50.856;12.776;2022-09-24T04:41:23;2.90;;;2.70;;
7377;SDS011;3730;50.856;12.776;2022-09-24T04:43:49;5.03;;;3.00;;
7377;SDS011;3730;50.856;12.776;2022-09-24T04:46:15;2.70;;;2.50;;
7377;SDS011;3730;50.856;12.776;2022-09-24T04:48:43;3.20;;;2.80;;
7377;SDS011;3730;50.856;12.776;2022-09-24T04:51:09;4.13;;;3.27;;
7377;SDS011;3730;50.856;12.776;2022-09-24T04:53:35;4.07;;;3.77;;
7377;SDS011;3730;50.856;12.776;2022-09-24T04:56:04;3.60;;;3.30;;
7377;SDS011;3730;50.856;12.776;2022-09-24T04:58:35;3.23;;;3.00;;
7377;SDS011;3730;50.856;12.776;2022-09-24T05:01:01;4.43;;;3.97;;
7377;SDS011;3730;50.856;12.776;2022-09-24T05:03:28;3.80;;;3.50;;
7377;SDS011;3730;50.856;12.776;2022-09-24T05:05:53;4.10;;;3.20;;
7377;SDS011;3730;50.856;12.776;2022-09-24T05:08:20;3.57;;;3.27;;
7377;SDS011;3730;50.856;12.776;2022-09-24T05:10:47;4.37;;;3.70;;
7377;SDS011;3730;50.856;12.776;2022-09-24T05:13:13;3.57;;;3.27;;
7377;SDS011;3730;50.856;12.776;2022-09-24T05:15:39;5.20;;;3.20;;
7377;SDS011;3730;50.856;12.776;2022-09-24T05:18:05;3.27;;;2.97;;
7377;SDS011;3730;50.856;12.776;2022-09-24T05:20:31;3.50;;;3.20;;
7377;SDS011;3730;50.856;12.776;2022-09-24T05:22:57;3.27;;;3.00;;
7377;SDS011;3730;50.856;12.776;2022-09-24T05:25:24;3.33;;;3.03;;
7377;SDS011;3730;50.856;12.776;2022-09-24T05:27:51;5.30;;;4.20;;
7377;SDS011;3730;50.856;12.776;2022-09-24T05:30:18;5.70;;;4.53;;
7377;SDS011;3730;50.856;12.776;2022-09-24T05:32:44;5.07;;;4.57;;
7377;SDS011;3730;50.856;12.776;2022-09-24T05:35:13;4.50;;;4.10;;
7377;SDS011;3730;50.856;12.776;2022-09-24T05:37:39;4.50;;;4.03;;
7377;SDS011;3730;50.856;12.776;2022-09-24T05:40:05;3.80;;;3.50;;
7377;SDS011;3730;50.856;12.776;2022-09-24T05:42:51;4.40;;;4.00;;
7377;SDS011;3730;50.856;12.776;2022-09-24T05:45:17;4.60;;;4.17;;
7377;SDS011;3730;50.856;12.776;2022-09-24T05:47:43;4.40;;;4.00;;
7377;SDS011;3730;50.856;12.776;2022-09-24T05:50:10;4.40;;;3.57;;
7377;SDS011;3730;50.856;12.776;2022-09-24T05:52:37;4.27;;;3.90;;
7377;SDS011;3730;50.856;12.776;2022-09-24T05:55:03;4.10;;;3.80;;
7377;SDS011;3730;50.856;12.776;2022-09-24T05:57:29;4.73;;;3.40;;
7377;SDS011;3730;50.856;12.776;2022-09-24T05:59:55;3.57;;;3.27;;
7377;SDS011;3730;50.856;12.776;2022-09-24T06:02:21;3.40;;;3.10;;
7377;SDS011;3730;50.856;12.776;2022-09-24T06:04:47;4.77;;;3.70;;
7377;SDS011;3730;50.856;12.776;2022-09-24T06:07:13;6.53;;;3.27;;
7377;SDS011;3730;50.856;12.776;2022-09-24T06:09:39;3.63;;;3.17;;
7377;SDS011;3730;50.856;12.776;2022-09-24T06:12:08;6.67;;;3.57;;
7377;SDS011;3730;50.856;12.776;2022-09-24T06:14:34;4.33;;;3.50;;
7377;SDS011;3730;50.856;12.776;2022-09-24T06:17:00;5.90;;;3.77;;
7377;SDS011;3730;50.856;12.776;2022-09-24T06:19:27;5.20;;;3.80;;
7377;SDS011;3730;50.856;12.776;2022-09-24T06:21:53;4.63;;;3.70;;
7377;SDS011;3730;50.856;12.776;2022-09-24T06:24:19;5.10;;;3.27;;
7377;SDS011;3730;50.856;12.776;2022-09-24T06:26:45;6.97;;;4.13;;
7377;SDS011;3730;50.856;12.776;2022-09-24T06:29:11;5.83;;;4.73;;
7377;SDS011;3730;50.856;12.776;2022-09-24T06:31:37;5.47;;;4.97;;
7377;SDS011;3730;50.856;12.776;2022-09-24T06:34:03;6.17;;;5.40;;
7377;SDS011;3730;50.856;12.776;2022-09-24T06:36:29;5.67;;;5.17;;
7377;SDS011;3730;50.856;12.776;2022-09-24T06:38:55;7.37;;;6.00;;
7377;SDS011;3730;50.856;12.776;2022-09-24T06:41:23;5.80;;;5.23;;
7377;SDS011;3730;50.856;12.776;2022-09-24T06:43:51;5.27;;;4.77;;
7377;SDS011;3730;50.856;12.776;2022-09-24T06:46:17;5.00;;;3.93;;
7377;SDS011;3730;50.856;12.776;2022-09-24T06:48:43;4.30;;;3.90;;
7377;SDS011;3730;50.856;12.776;2022-09-24T06:51:09;4.27;;;3.93;;
7377;SDS011;3730;50.856;12.776;2022-09-24T06:53:35;5.60;;;3.80;;
7377;SDS011;3730;50.856;12.776;2022-09-24T06:56:02;4.80;;;3.80;;
7377;SDS011;3730;50.856;12.776;2022-09-24T06:58:28;5.60;;;3.90;;
7377;SDS011;3730;50.856;12.776;2022-09-24T07:00:55;5.50;;;4.90;;
7377;SDS011;3730;50.856;12.776;2022-09-24T07:03:26;5.20;;;4.47;;
7377;SDS011;3730;50.856;12.776;2022-09-24T07:05:53;4.93;;;4.03;;
7377;SDS011;3730;50.856;12.776;2022-09-24T07:08:19;3.97;;;3.67;;
7377;SDS011;3730;50.856;12.776;2022-09-24T07:10:45;4.73;;;4.30;;
7377;SDS011;3730;50.856;12.776;2022-09-24T07:13:13;4.43;;;4.00;;
7377;SDS011;3730;50.856;12.776;2022-09-24T07:15:40;3.77;;;3.47;;
7377;SDS011;3730;50.856;12.776;2022-09-24T07:18:06;4.20;;;3.80;;
7377;SDS011;3730;50.856;12.776;2022-09-24T07:20:32;5.57;;;4.83;;
7377;SDS011;3730;50.856;12.776;2022-09-24T07:22:59;4.97;;;4.40;;
7377;SDS011;3730;50.856;12.776;2022-09-24T07:25:25;4.37;;;3.90;;
7377;SDS011;3730;50.856;12.776;2022-09-24T07:27:51;5.07;;;4.10;;
7377;SDS011;3730;50.856;12.776;2022-09-24T07:30:17;6.07;;;4.20;;
7377;SDS011;3730;50.856;12.776;2022-09-24T07:32:43;3.67;;;3.37;;
7377;SDS011;3730;50.856;12.776;2022-09-24T07:35:09;4.20;;;3.33;;
7377;SDS011;3730;50.856;12.776;2022-09-24T07:37:35;3.90;;;3.50;;
7377;SDS011;3730;50.856;12.776;2022-09-24T07:40:01;4.30;;;3.70;;
7377;SDS011;3730;50.856;12.776;2022-09-24T07:42:27;4.30;;;3.20;;
7377;SDS011;3730;50.856;12.776;2022-09-24T07:44:53;3.53;;;3.23;;
7377;SDS011;3730;50.856;12.776;2022-09-24T07:47:21;3.50;;;3.20;;
7377;SDS011;3730;50.856;12.776;2022-09-24T07:49:47;3.40;;;3.10;;
7377;SDS011;3730;50.856;12.776;2022-09-24T07:52:13;3.60;;;3.30;;
7377;SDS011;3730;50.856;12.776;2022-09-24T07:54:39;3.97;;;3.30;;
7377;SDS011;3730;50.856;12.776;2022-09-24T07:57:09;9.90;;;6.50;;
7377;SDS011;3730;50.856;12.776;2022-09-24T07:59:36;3.87;;;3.53;;
7377;SDS011;3730;50.856;12.776;2022-09-24T08:02:03;3.13;;;2.90;;
7377;SDS011;3730;50.856;12.776;2022-09-24T08:04:31;4.43;;;3.37;;
7377;SDS011;3730;50.856;12.776;2022-09-24T08:06:57;3.50;;;3.20;;
7377;SDS011;3730;50.856;12.776;2022-09-24T08:09:24;4.10;;;3.20;;
7377;SDS011;3730;50.856;12.776;2022-09-24T08:11:50;3.50;;;3.20;;
7377;SDS011;3730;50.856;12.776;2022-09-24T08:14:16;3.90;;;3.50;;
7377;SDS011;3730;50.856;12.776;2022-09-24T08:16:42;5.47;;;3.20;;
7377;SDS011;3730;50.856;12.776;2022-09-24T08:19:08;3.87;;;3.57;;
7377;SDS011;3730;50.856;12.776;2022-09-24T08:21:38;4.10;;;3.80;;
7377;SDS011;3730;50.856;12.776;2022-09-24T08:24:04;3.77;;;3.37;;
7377;SDS011;3730;50.856;12.776;2022-09-24T08:26:30;4.80;;;3.40;;
7377;SDS011;3730;50.856;12.776;2022-09-24T08:28:56;3.40;;;2.67;;
7377;SDS011;3730;50.856;12.776;2022-09-24T08:31:22;4.10;;;3.23;;
7377;SDS011;3730;50.856;12.776;2022-09-24T08:33:48;3.03;;;2.83;;
7377;SDS011;3730;50.856;12.776;2022-09-24T08:36:17;3.87;;;3.10;;
7377;SDS011;3730;50.856;12.776;2022-09-24T08:38:43;2.80;;;2.60;;
7377;SDS011;3730;50.856;12.776;2022-09-24T08:46:25;3.30;;;2.80;;
7377;SDS011;3730;50.856;12.776;2022-09-24T08:49:12;4.37;;;3.53;;
7377;SDS011;3730;50.856;12.776;2022-09-24T08:52:00;3.63;;;3.03;;
7377;SDS011;3730;50.856;12.776;2022-09-24T08:54:27;3.30;;;3.00;;
7377;SDS011;3730;50.856;12.776;2022-09-24T08:56:55;3.60;;;3.20;;
7377;SDS011;3730;50.856;12.776;2022-09-24T08:59:28;2.80;;;2.60;;
7377;SDS011;3730;50.856;12.776;2022-09-24T09:09:23;3.03;;;2.83;;
7377;SDS011;3730;50.856;12.776;2022-09-24T09:12:01;3.60;;;2.77;;
7377;SDS011;3730;50.856;12.776;2022-09-24T09:16:54;2.93;;;2.73;;
7377;SDS011;3730;50.856;12.776;2022-09-24T09:19:23;3.87;;;3.47;;
7377;SDS011;3730;50.856;12.776;2022-09-24T09:21:52;3.00;;;2.80;;
7377;SDS011;3730;50.856;12.776;2022-09-24T09:24:23;4.57;;;3.43;;
7377;SDS011;3730;50.856;12.776;2022-09-24T09:26:54;4.83;;;3.10;;
7377;SDS011;3730;50.856;12.776;2022-09-24T09:29:21;4.53;;;3.20;;
7377;SDS011;3730;50.856;12.776;2022-09-24T09:31:52;3.20;;;2.90;;
7377;SDS011;3730;50.856;12.776;2022-09-24T09:42:03;3.23;;;2.53;;
7377;SDS011;3730;50.856;12.776;2022-09-24T09:44:35;3.07;;;2.60;;
7377;SDS011;3730;50.856;12.776;2022-09-24T09:47:04;2.90;;;2.70;;
7377;SDS011;3730;50.856;12.776;2022-09-24T09:49:36;3.37;;;3.03;;
7377;SDS011;3730;50.856;12.776;2022-09-24T09:52:08;3.20;;;2.90;;
7377;SDS011;3730;50.856;12.776;2022-09-24T09:54:36;3.20;;;2.90;;
7377;SDS011;3730;50.856;12.776;2022-09-24T09:57:03;2.80;;;2.60;;
7377;SDS011;3730;50.856;12.776;2022-09-24T09:59:30;3.63;;;2.90;;
7377;SDS011;3730;50.856;12.776;2022-09-24T10:01:58;3.13;;;2.93;;
7377;SDS011;3730;50.856;12.776;2022-09-24T10:07:03;3.23;;;3.00;;
7377;SDS011;3730;50.856;12.776;2022-09-24T10:09:30;5.00;;;3.37;;
7377;SDS011;3730;50.856;12.776;2022-09-24T10:12:06;3.13;;;2.63;;
7377;SDS011;3730;50.856;12.776;2022-09-24T10:14:32;2.50;;;2.30;;
7377;SDS011;3730;50.856;12.776;2022-09-24T10:16:59;2.90;;;2.60;;
7377;SDS011;3730;50.856;12.776;2022-09-24T10:19:29;3.73;;;3.10;;
7377;SDS011;3730;50.856;12.776;2022-09-24T10:21:57;3.33;;;2.87;;
7377;SDS011;3730;50.856;12.776;2022-09-24T10:24:24;3.30;;;3.10;;
7377;SDS011;3730;50.856;12.776;2022-09-24T10:26:51;3.53;;;3.00;;
7377;SDS011;3730;50.856;12.776;2022-09-24T10:29:21;2.93;;;2.73;;
7377;SDS011;3730;50.856;12.776;2022-09-24T10:32:24;4.67;;;3.50;;
7377;SDS011;3730;50.856;12.776;2022-09-24T10:34:54;3.30;;;3.10;;
7377;SDS011;3730;50.856;12.776;2022-09-24T10:37:20;3.70;;;3.37;;
7377;SDS011;3730;50.856;12.776;2022-09-24T10:39:55;4.63;;;4.17;;
7377;SDS011;3730;50.856;12.776;2022-09-24T10:42:23;4.53;;;3.63;;
7377;SDS011;3730;50.856;12.776;2022-09-24T10:44:49;4.30;;;3.50;;
7377;SDS011;3730;50.856;12.776;2022-09-24T10:50:28;3.80;;;3.20;;
7377;SDS011;3730;50.856;12.776;2022-09-24T11:00:21;3.50;;;3.20;;
7377;SDS011;3730;50.856;12.776;2022-09-24T11:03:00;4.37;;;3.47;;
7377;SDS011;3730;50.856;12.776;2022-09-24T11:05:35;5.47;;;4.37;;
7377;SDS011;3730;50.856;12.776;2022-09-24T11:26:21;3.70;;;3.40;;
7377;SDS011;3730;50.856;12.776;2022-09-24T11:49:40;5.47;;;4.97;;
7377;SDS011;3730;50.856;12.776;2022-09-24T11:52:10;4.33;;;3.97;;
7377;SDS011;3730;50.856;12.776;2022-09-24T11:54:39;5.13;;;4.60;;
7377;SDS011;3730;50.856;12.776;2022-09-24T11:59:40;5.30;;;4.80;;
7377;SDS011;3730;50.856;12.776;2022-09-24T12:04:41;4.77;;;4.20;;
7377;SDS011;3730;50.856;12.776;2022-09-24T12:07:27;6.00;;;5.40;;
7377;SDS011;3730;50.856;12.776;2022-09-24T12:12:40;6.20;;;5.57;;
7377;SDS011;3730;50.856;12.776;2022-09-24T12:18:05;5.80;;;5.30;;
7377;SDS011;3730;50.856;12.776;2022-09-24T12:20:34;5.70;;;5.10;;
7377;SDS011;3730;50.856;12.776;2022-09-24T12:23:08;6.13;;;4.97;;
7377;SDS011;3730;50.856;12.776;2022-09-24T12:25:37;6.43;;;5.37;;
7377;SDS011;3730;50.856;12.776;2022-09-24T12:28:04;6.03;;;5.43;;
7377;SDS011;3730;50.856;12.776;2022-09-24T12:30:36;9.33;;;5.93;;
7377;SDS011;3730;50.856;12.776;2022-09-24T12:38:37;4.83;;;4.40;;
7377;SDS011;3730;50.856;12.776;2022-09-24T12:41:09;4.70;;;4.27;;
7377;SDS011;3730;50.856;12.776;2022-09-24T12:46:05;4.87;;;4.43;;
7377;SDS011;3730;50.856;12.776;2022-09-24T12:48:34;4.43;;;4.03;;
7377;SDS011;3730;50.856;12.776;2022-09-24T12:51:02;5.20;;;4.70;;
7377;SDS011;3730;50.856;12.776;2022-09-24T12:53:33;4.73;;;4.27;;
7377;SDS011;3730;50.856;12.776;2022-09-24T12:55:59;5.60;;;4.60;;
7377;SDS011;3730;50.856;12.776;2022-09-24T12:58:35;4.63;;;3.40;;
7377;SDS011;3730;50.856;12.776;2022-09-24T13:03:45;4.50;;;4.10;;
7377;SDS011;3730;50.856;12.776;2022-09-24T13:14:38;3.30;;;3.10;;
7377;SDS011;3730;50.856;12.776;2022-09-24T13:17:05;4.20;;;3.70;;
7377;SDS011;3730;50.856;12.776;2022-09-24T13:19:36;3.37;;;3.17;;
7377;SDS011;3730;50.856;12.776;2022-09-24T13:22:05;4.30;;;4.00;;
7377;SDS011;3730;50.856;12.776;2022-09-24T13:24:32;4.37;;;3.93;;
7377;SDS011;3730;50.856;12.776;2022-09-24T13:29:45;4.20;;;3.80;;
7377;SDS011;3730;50.856;12.776;2022-09-24T13:32:14;4.63;;;3.60;;
7377;SDS011;3730;50.856;12.776;2022-09-24T13:34:42;4.70;;;3.30;;
7377;SDS011;3730;50.856;12.776;2022-09-24T13:37:22;3.73;;;3.43;;
7377;SDS011;3730;50.856;12.776;2022-09-24T13:40:00;4.00;;;3.33;;
7377;SDS011;3730;50.856;12.776;2022-09-24T13:42:30;5.37;;;3.60;;
7377;SDS011;3730;50.856;12.776;2022-09-24T13:44:59;3.67;;;3.37;;
7377;SDS011;3730;50.856;12.776;2022-09-24T13:49:53;5.03;;;4.10;;
7377;SDS011;3730;50.856;12.776;2022-09-24T13:52:41;3.90;;;3.60;;
7377;SDS011;3730;50.856;12.776;2022-09-24T13:55:16;4.33;;;3.97;;
7377;SDS011;3730;50.856;12.776;2022-09-24T13:57:43;4.03;;;3.73;;
7377;SDS011;3730;50.856;12.776;2022-09-24T14:02:40;4.40;;;3.73;;
7377;SDS011;3730;50.856;12.776;2022-09-24T14:05:13;4.37;;;4.00;;
7377;SDS011;3730;50.856;12.776;2022-09-24T14:07:39;7.33;;;6.33;;
7377;SDS011;3730;50.856;12.776;2022-09-24T14:10:10;3.97;;;3.60;;
7377;SDS011;3730;50.856;12.776;2022-09-24T14:12:37;5.57;;;3.40;;
7377;SDS011;3730;50.856;12.776;2022-09-24T14:15:05;4.27;;;3.87;;
7377;SDS011;3730;50.856;12.776;2022-09-24T14:17:34;5.77;;;4.90;;
7377;SDS011;3730;50.856;12.776;2022-09-24T14:20:00;5.73;;;4.03;;
7377;SDS011;3730;50.856;12.776;2022-09-24T14:22:32;3.80;;;3.50;;
7377;SDS011;3730;50.856;12.776;2022-09-24T14:25:00;7.43;;;6.00;;
7377;SDS011;3730;50.856;12.776;2022-09-24T14:27:27;4.70;;;4.17;;
7377;SDS011;3730;50.856;12.776;2022-09-24T14:29:55;3.77;;;3.47;;
7377;SDS011;3730;50.856;12.776;2022-09-24T14:32:35;4.20;;;3.63;;
7377;SDS011;3730;50.856;12.776;2022-09-24T14:35:06;3.97;;;3.43;;
7377;SDS011;3730;50.856;12.776;2022-09-24T14:37:34;3.80;;;3.50;;
7377;SDS011;3730;50.856;12.776;2022-09-24T14:40:15;3.77;;;3.47;;
7377;SDS011;3730;50.856;12.776;2022-09-24T14:42:43;4.03;;;3.50;;
7377;SDS011;3730;50.856;12.776;2022-09-24T14:45:24;4.07;;;3.13;;
7377;SDS011;3730;50.856;12.776;2022-09-24T14:48:01;4.67;;;3.70;;
7377;SDS011;3730;50.856;12.776;2022-09-24T14:50:37;3.77;;;3.33;;
7377;SDS011;3730;50.856;12.776;2022-09-24T14:53:20;3.77;;;3.47;;
7377;SDS011;3730;50.856;12.776;2022-09-24T14:55:46;3.60;;;3.30;;
7377;SDS011;3730;50.856;12.776;2022-09-24T14:58:23;3.47;;;3.17;;
7377;SDS011;3730;50.856;12.776;2022-09-24T15:00:50;4.73;;;3.50;;
7377;SDS011;3730;50.856;12.776;2022-09-24T15:03:21;3.27;;;3.00;;
7377;SDS011;3730;50.856;12.776;2022-09-24T15:06:00;2.93;;;2.73;;
7377;SDS011;3730;50.856;12.776;2022-09-24T15:08:40;3.17;;;2.77;;
7377;SDS011;3730;50.856;12.776;2022-09-24T15:11:13;4.57;;;3.00;;
7377;SDS011;3730;50.856;12.776;2022-09-24T15:13:39;3.67;;;3.30;;
7377;SDS011;3730;50.856;12.776;2022-09-24T15:16:19;6.20;;;3.07;;
7377;SDS011;3730;50.856;12.776;2022-09-24T15:18:56;3.30;;;3.03;;
7377;SDS011;3730;50.856;12.776;2022-09-24T15:21:23;3.40;;;3.20;;
7377;SDS011;3730;50.856;12.776;2022-09-24T15:23:49;3.40;;;3.10;;
7377;SDS011;3730;50.856;12.776;2022-09-24T15:26:15;3.57;;;2.90;;
7377;SDS011;3730;50.856;12.776;2022-09-24T15:28:41;3.70;;;2.80;;
7377;SDS011;3730;50.856;12.776;2022-09-24T15:31:07;3.27;;;3.07;;
7377;SDS011;3730;50.856;12.776;2022-09-24T15:33:33;3.07;;;2.87;;
7377;SDS011;3730;50.856;12.776;2022-09-24T15:35:59;3.60;;;3.00;;
7377;SDS011;3730;50.856;12.776;2022-09-24T15:38:25;3.40;;;3.10;;
7377;SDS011;3730;50.856;12.776;2022-09-24T15:40:51;3.80;;;3.50;;
7377;SDS011;3730;50.856;12.776;2022-09-24T15:45:43;3.40;;;3.10;;
7377;SDS011;3730;50.856;12.776;2022-09-24T15:48:09;5.37;;;3.50;;
7377;SDS011;3730;50.856;12.776;2022-09-24T15:50:36;3.13;;;2.83;;
7377;SDS011;3730;50.856;12.776;2022-09-24T15:53:03;3.53;;;3.23;;
7377;SDS011;3730;50.856;12.776;2022-09-24T15:55:30;3.43;;;3.23;;
7377;SDS011;3730;50.856;12.776;2022-09-24T15:57:58;5.17;;;3.30;;
7377;SDS011;3730;50.856;12.776;2022-09-24T16:00:25;4.37;;;3.57;;
7377;SDS011;3730;50.856;12.776;2022-09-24T16:02:52;4.10;;;3.17;;
7377;SDS011;3730;50.856;12.776;2022-09-24T16:05:20;3.63;;;3.30;;
7377;SDS011;3730;50.856;12.776;2022-09-24T16:07:46;3.50;;;3.20;;
7377;SDS011;3730;50.856;12.776;2022-09-24T16:10:12;3.40;;;3.20;;
7377;SDS011;3730;50.856;12.776;2022-09-24T16:12:38;3.30;;;3.00;;
7377;SDS011;3730;50.856;12.776;2022-09-24T16:15:05;3.60;;;3.17;;
7377;SDS011;3730;50.856;12.776;2022-09-24T16:17:31;3.63;;;3.33;;
7377;SDS011;3730;50.856;12.776;2022-09-24T16:19:57;3.47;;;3.17;;
7377;SDS011;3730;50.856;12.776;2022-09-24T16:22:23;4.63;;;3.40;;
7377;SDS011;3730;50.856;12.776;2022-09-24T16:24:49;3.80;;;3.50;;
7377;SDS011;3730;50.856;12.776;2022-09-24T16:27:15;4.43;;;3.60;;
7377;SDS011;3730;50.856;12.776;2022-09-24T16:29:41;3.87;;;3.57;;
7377;SDS011;3730;50.856;12.776;2022-09-24T16:32:07;4.30;;;3.87;;
7377;SDS011;3730;50.856;12.776;2022-09-24T16:34:33;3.63;;;3.33;;
7377;SDS011;3730;50.856;12.776;2022-09-24T16:36:59;5.83;;;4.33;;
7377;SDS011;3730;50.856;12.776;2022-09-24T16:39:25;4.73;;;4.30;;
7377;SDS011;3730;50.856;12.776;2022-09-24T16:41:51;4.30;;;3.90;;
7377;SDS011;3730;50.856;12.776;2022-09-24T16:44:18;4.50;;;4.10;;
7377;SDS011;3730;50.856;12.776;2022-09-24T16:46:44;3.83;;;3.37;;
7377;SDS011;3730;50.856;12.776;2022-09-24T16:49:10;3.53;;;3.23;;
7377;SDS011;3730;50.856;12.776;2022-09-24T16:51:36;7.30;;;4.13;;
7377;SDS011;3730;50.856;12.776;2022-09-24T16:54:03;5.60;;;5.00;;
7377;SDS011;3730;50.856;12.776;2022-09-24T16:56:30;5.93;;;5.03;;
7377;SDS011;3730;50.856;12.776;2022-09-24T16:58:56;6.07;;;4.73;;
7377;SDS011;3730;50.856;12.776;2022-09-24T17:01:22;8.43;;;5.77;;
7377;SDS011;3730;50.856;12.776;2022-09-24T17:03:52;6.07;;;5.40;;
7377;SDS011;3730;50.856;12.776;2022-09-24T17:06:19;7.57;;;5.17;;
7377;SDS011;3730;50.856;12.776;2022-09-24T17:08:45;5.87;;;5.27;;
7377;SDS011;3730;50.856;12.776;2022-09-24T17:11:30;8.17;;;6.77;;
7377;SDS011;3730;50.856;12.776;2022-09-24T17:13:56;8.47;;;6.23;;
7377;SDS011;3730;50.856;12.776;2022-09-24T17:16:22;6.53;;;5.83;;
7377;SDS011;3730;50.856;12.776;2022-09-24T17:18:51;8.23;;;6.03;;
7377;SDS011;3730;50.856;12.776;2022-09-24T17:21:20;6.90;;;6.20;;
7377;SDS011;3730;50.856;12.776;2022-09-24T17:23:47;5.97;;;5.37;;
7377;SDS011;3730;50.856;12.776;2022-09-24T17:26:13;6.40;;;5.80;;